Terminal Aerodrome Forecast
Issued by NWS

Home | Current Version | Previous Version | Graphics & Text | Print | Product List | Glossary On
Versions: 1 2 3 4 5 6 7 8 9 10 11 12 13 14
000
FTUS42 KMHX 280531
TAFPGV
TAF
KPGV 280531Z 2806/2906 21007KT P6SM BKN150
     FM280900 23005KT P6SM SCT050
     FM282200 20006KT P6SM VCTS BKN040CB
     FM290200 20005KT P6SM BKN150
      AMD LTD TO CLD VIS AND WIND=

USA.gov is the U.S. government's official web portal to all federal, state and local government web resources and services.